sensor_id;sensor_type;location;lat;lon;timestamp;P1;durP1;ratioP1;P2;durP2;ratioP2
4517;SDS011;2271;49.464;11.070;2023-06-26T00:02:16;6.88;;;5.65;;
4517;SDS011;2271;49.464;11.070;2023-06-26T00:04:42;6.57;;;5.47;;
4517;SDS011;2271;49.464;11.070;2023-06-26T00:07:08;8.30;;;5.90;;
4517;SDS011;2271;49.464;11.070;2023-06-26T00:09:34;5.72;;;5.13;;
4517;SDS011;2271;49.464;11.070;2023-06-26T00:12:00;8.00;;;5.10;;
4517;SDS011;2271;49.464;11.070;2023-06-26T00:14:25;6.68;;;5.50;;
4517;SDS011;2271;49.464;11.070;2023-06-26T00:16:51;5.97;;;5.38;;
4517;SDS011;2271;49.464;11.070;2023-06-26T00:19:17;6.15;;;5.55;;
4517;SDS011;2271;49.464;11.070;2023-06-26T00:21:43;9.93;;;6.18;;
4517;SDS011;2271;49.464;11.070;2023-06-26T00:24:11;6.72;;;5.38;;
4517;SDS011;2271;49.464;11.070;2023-06-26T00:26:38;8.13;;;5.75;;
4517;SDS011;2271;49.464;11.070;2023-06-26T00:29:03;6.35;;;5.75;;
4517;SDS011;2271;49.464;11.070;2023-06-26T00:31:29;6.03;;;5.35;;
4517;SDS011;2271;49.464;11.070;2023-06-26T00:33:55;6.55;;;5.07;;
4517;SDS011;2271;49.464;11.070;2023-06-26T00:36:21;8.70;;;5.50;;
4517;SDS011;2271;49.464;11.070;2023-06-26T00:38:49;7.05;;;5.47;;
4517;SDS011;2271;49.464;11.070;2023-06-26T00:41:15;6.60;;;5.68;;
4517;SDS011;2271;49.464;11.070;2023-06-26T00:43:41;7.18;;;6.13;;
4517;SDS011;2271;49.464;11.070;2023-06-26T00:46:08;6.72;;;5.38;;
4517;SDS011;2271;49.464;11.070;2023-06-26T00:48:35;7.03;;;5.70;;
4517;SDS011;2271;49.464;11.070;2023-06-26T00:51:02;7.60;;;5.80;;
4517;SDS011;2271;49.464;11.070;2023-06-26T00:53:28;6.93;;;5.68;;
4517;SDS011;2271;49.464;11.070;2023-06-26T00:55:55;8.00;;;6.13;;
4517;SDS011;2271;49.464;11.070;2023-06-26T00:58:21;5.78;;;5.18;;
4517;SDS011;2271;49.464;11.070;2023-06-26T01:00:50;6.93;;;6.15;;
4517;SDS011;2271;49.464;11.070;2023-06-26T01:03:17;8.95;;;6.30;;
4517;SDS011;2271;49.464;11.070;2023-06-26T01:05:44;9.57;;;6.15;;
4517;SDS011;2271;49.464;11.070;2023-06-26T01:08:13;6.78;;;5.85;;
4517;SDS011;2271;49.464;11.070;2023-06-26T01:10:39;7.70;;;6.60;;
4517;SDS011;2271;49.464;11.070;2023-06-26T01:13:05;6.15;;;5.55;;
4517;SDS011;2271;49.464;11.070;2023-06-26T01:15:31;7.15;;;6.45;;
4517;SDS011;2271;49.464;11.070;2023-06-26T01:17:57;6.22;;;5.50;;
4517;SDS011;2271;49.464;11.070;2023-06-26T01:20:24;6.13;;;4.90;;
4517;SDS011;2271;49.464;11.070;2023-06-26T01:25:44;7.70;;;5.95;;
4517;SDS011;2271;49.464;11.070;2023-06-26T01:28:24;5.68;;;4.95;;
4517;SDS011;2271;49.464;11.070;2023-06-26T01:30:51;6.40;;;5.63;;
4517;SDS011;2271;49.464;11.070;2023-06-26T01:33:17;8.88;;;6.03;;
4517;SDS011;2271;49.464;11.070;2023-06-26T01:35:43;6.88;;;5.50;;
4517;SDS011;2271;49.464;11.070;2023-06-26T01:38:16;7.07;;;6.05;;
4517;SDS011;2271;49.464;11.070;2023-06-26T01:40:43;6.13;;;5.45;;
4517;SDS011;2271;49.464;11.070;2023-06-26T01:43:11;6.47;;;5.35;;
4517;SDS011;2271;49.464;11.070;2023-06-26T01:45:48;6.30;;;5.20;;
4517;SDS011;2271;49.464;11.070;2023-06-26T01:48:16;5.85;;;5.25;;
4517;SDS011;2271;49.464;11.070;2023-06-26T01:50:48;7.80;;;6.32;;
4517;SDS011;2271;49.464;11.070;2023-06-26T01:53:20;6.53;;;5.45;;
4517;SDS011;2271;49.464;11.070;2023-06-26T01:55:55;6.70;;;5.97;;
4517;SDS011;2271;49.464;11.070;2023-06-26T01:58:28;6.63;;;5.55;;
4517;SDS011;2271;49.464;11.070;2023-06-26T02:00:54;6.20;;;5.50;;
4517;SDS011;2271;49.464;11.070;2023-06-26T02:03:20;7.60;;;5.40;;
4517;SDS011;2271;49.464;11.070;2023-06-26T02:05:49;7.47;;;5.80;;
4517;SDS011;2271;49.464;11.070;2023-06-26T02:08:15;6.70;;;5.57;;
4517;SDS011;2271;49.464;11.070;2023-06-26T02:10:41;8.48;;;5.57;;
4517;SDS011;2271;49.464;11.070;2023-06-26T02:13:07;8.73;;;5.65;;
4517;SDS011;2271;49.464;11.070;2023-06-26T02:15:32;7.05;;;6.15;;
4517;SDS011;2271;49.464;11.070;2023-06-26T02:17:58;6.22;;;5.55;;
4517;SDS011;2271;49.464;11.070;2023-06-26T02:20:23;6.53;;;5.32;;
4517;SDS011;2271;49.464;11.070;2023-06-26T02:22:49;7.90;;;6.30;;
4517;SDS011;2271;49.464;11.070;2023-06-26T02:25:15;7.82;;;6.13;;
4517;SDS011;2271;49.464;11.070;2023-06-26T02:27:41;6.25;;;5.55;;
4517;SDS011;2271;49.464;11.070;2023-06-26T02:30:08;7.50;;;6.10;;
4517;SDS011;2271;49.464;11.070;2023-06-26T02:32:34;7.25;;;5.78;;
4517;SDS011;2271;49.464;11.070;2023-06-26T02:34:59;6.68;;;5.30;;
4517;SDS011;2271;49.464;11.070;2023-06-26T02:37:25;7.07;;;5.82;;
4517;SDS011;2271;49.464;11.070;2023-06-26T02:39:51;7.10;;;6.07;;
4517;SDS011;2271;49.464;11.070;2023-06-26T02:42:16;8.23;;;6.13;;
4517;SDS011;2271;49.464;11.070;2023-06-26T02:44:42;6.35;;;5.40;;
4517;SDS011;2271;49.464;11.070;2023-06-26T02:47:08;6.18;;;5.57;;
4517;SDS011;2271;49.464;11.070;2023-06-26T02:49:33;6.63;;;5.70;;
4517;SDS011;2271;49.464;11.070;2023-06-26T02:51:59;6.50;;;5.45;;
4517;SDS011;2271;49.464;11.070;2023-06-26T02:54:24;6.00;;;5.40;;
4517;SDS011;2271;49.464;11.070;2023-06-26T02:56:50;6.97;;;5.90;;
4517;SDS011;2271;49.464;11.070;2023-06-26T02:59:16;8.10;;;5.90;;
4517;SDS011;2271;49.464;11.070;2023-06-26T03:01:41;8.23;;;6.47;;
4517;SDS011;2271;49.464;11.070;2023-06-26T03:04:07;6.97;;;5.47;;
4517;SDS011;2271;49.464;11.070;2023-06-26T03:06:33;7.10;;;5.70;;
4517;SDS011;2271;49.464;11.070;2023-06-26T03:08:58;6.78;;;6.07;;
4517;SDS011;2271;49.464;11.070;2023-06-26T03:11:24;6.75;;;5.68;;
4517;SDS011;2271;49.464;11.070;2023-06-26T03:13:50;7.85;;;5.93;;
4517;SDS011;2271;49.464;11.070;2023-06-26T03:16:15;6.50;;;5.90;;
4517;SDS011;2271;49.464;11.070;2023-06-26T03:18:41;8.65;;;5.82;;
4517;SDS011;2271;49.464;11.070;2023-06-26T03:21:08;6.13;;;5.25;;
4517;SDS011;2271;49.464;11.070;2023-06-26T03:23:34;6.93;;;5.88;;
4517;SDS011;2271;49.464;11.070;2023-06-26T03:25:59;6.40;;;5.70;;
4517;SDS011;2271;49.464;11.070;2023-06-26T03:28:25;9.07;;;6.03;;
4517;SDS011;2271;49.464;11.070;2023-06-26T03:30:51;6.35;;;5.53;;
4517;SDS011;2271;49.464;11.070;2023-06-26T03:33:16;7.20;;;5.43;;
4517;SDS011;2271;49.464;11.070;2023-06-26T03:35:42;6.55;;;5.85;;
4517;SDS011;2271;49.464;11.070;2023-06-26T03:38:08;6.60;;;5.80;;
4517;SDS011;2271;49.464;11.070;2023-06-26T03:40:34;8.73;;;6.05;;
4517;SDS011;2271;49.464;11.070;2023-06-26T03:43:00;6.50;;;5.63;;
4517;SDS011;2271;49.464;11.070;2023-06-26T03:45:26;6.88;;;6.00;;
4517;SDS011;2271;49.464;11.070;2023-06-26T03:47:51;6.47;;;5.75;;
4517;SDS011;2271;49.464;11.070;2023-06-26T03:50:17;7.68;;;6.00;;
4517;SDS011;2271;49.464;11.070;2023-06-26T03:52:43;7.15;;;5.88;;
4517;SDS011;2271;49.464;11.070;2023-06-26T03:55:09;5.40;;;4.85;;
4517;SDS011;2271;49.464;11.070;2023-06-26T03:57:34;7.10;;;5.35;;
4517;SDS011;2271;49.464;11.070;2023-06-26T04:00:00;6.40;;;5.80;;
4517;SDS011;2271;49.464;11.070;2023-06-26T04:02:26;7.20;;;5.53;;
4517;SDS011;2271;49.464;11.070;2023-06-26T04:05:00;7.45;;;5.68;;
4517;SDS011;2271;49.464;11.070;2023-06-26T04:07:31;6.90;;;5.90;;
4517;SDS011;2271;49.464;11.070;2023-06-26T04:09:57;6.45;;;5.32;;
4517;SDS011;2271;49.464;11.070;2023-06-26T04:12:25;6.75;;;5.50;;
4517;SDS011;2271;49.464;11.070;2023-06-26T04:15:01;9.52;;;6.20;;
4517;SDS011;2271;49.464;11.070;2023-06-26T04:17:27;7.68;;;5.00;;
4517;SDS011;2271;49.464;11.070;2023-06-26T04:19:59;6.93;;;5.90;;
4517;SDS011;2271;49.464;11.070;2023-06-26T04:22:31;5.97;;;5.18;;
4517;SDS011;2271;49.464;11.070;2023-06-26T04:24:57;9.70;;;6.25;;
4517;SDS011;2271;49.464;11.070;2023-06-26T04:27:23;6.65;;;5.38;;
4517;SDS011;2271;49.464;11.070;2023-06-26T04:29:48;6.53;;;5.25;;
4517;SDS011;2271;49.464;11.070;2023-06-26T04:32:14;6.90;;;5.40;;
4517;SDS011;2271;49.464;11.070;2023-06-26T04:34:39;8.13;;;5.63;;
4517;SDS011;2271;49.464;11.070;2023-06-26T04:37:08;8.18;;;5.65;;
4517;SDS011;2271;49.464;11.070;2023-06-26T04:39:34;7.72;;;6.05;;
4517;SDS011;2271;49.464;11.070;2023-06-26T04:42:02;7.03;;;5.45;;
4517;SDS011;2271;49.464;11.070;2023-06-26T04:44:28;7.47;;;5.35;;
4517;SDS011;2271;49.464;11.070;2023-06-26T04:46:53;6.72;;;6.00;;
4517;SDS011;2271;49.464;11.070;2023-06-26T04:49:19;10.15;;;5.47;;
4517;SDS011;2271;49.464;11.070;2023-06-26T04:51:45;6.38;;;5.40;;
4517;SDS011;2271;49.464;11.070;2023-06-26T04:54:11;6.90;;;5.32;;
4517;SDS011;2271;49.464;11.070;2023-06-26T04:56:37;9.55;;;6.00;;
4517;SDS011;2271;49.464;11.070;2023-06-26T04:59:05;6.97;;;5.38;;
4517;SDS011;2271;49.464;11.070;2023-06-26T05:01:30;8.98;;;5.78;;
4517;SDS011;2271;49.464;11.070;2023-06-26T05:03:57;7.70;;;5.80;;
4517;SDS011;2271;49.464;11.070;2023-06-26T05:06:27;8.52;;;5.60;;
4517;SDS011;2271;49.464;11.070;2023-06-26T05:08:53;8.38;;;4.97;;
4517;SDS011;2271;49.464;11.070;2023-06-26T05:11:18;9.85;;;6.05;;
4517;SDS011;2271;49.464;11.070;2023-06-26T05:13:44;7.72;;;6.05;;
4517;SDS011;2271;49.464;11.070;2023-06-26T05:16:09;7.78;;;5.90;;
4517;SDS011;2271;49.464;11.070;2023-06-26T05:18:35;10.15;;;5.70;;
4517;SDS011;2271;49.464;11.070;2023-06-26T05:21:01;7.15;;;5.57;;
4517;SDS011;2271;49.464;11.070;2023-06-26T05:23:29;7.22;;;5.97;;
4517;SDS011;2271;49.464;11.070;2023-06-26T05:25:56;7.28;;;5.53;;
4517;SDS011;2271;49.464;11.070;2023-06-26T05:28:25;6.72;;;5.50;;
4517;SDS011;2271;49.464;11.070;2023-06-26T05:30:53;8.88;;;5.57;;
4517;SDS011;2271;49.464;11.070;2023-06-26T05:33:19;6.82;;;6.03;;
4517;SDS011;2271;49.464;11.070;2023-06-26T05:35:48;6.55;;;5.70;;
4517;SDS011;2271;49.464;11.070;2023-06-26T05:38:14;6.00;;;4.85;;
4517;SDS011;2271;49.464;11.070;2023-06-26T05:40:40;8.30;;;5.75;;
4517;SDS011;2271;49.464;11.070;2023-06-26T05:43:06;6.78;;;5.75;;
4517;SDS011;2271;49.464;11.070;2023-06-26T05:45:32;5.78;;;5.18;;
4517;SDS011;2271;49.464;11.070;2023-06-26T05:47:58;9.65;;;5.53;;
4517;SDS011;2271;49.464;11.070;2023-06-26T05:50:24;6.65;;;5.25;;
4517;SDS011;2271;49.464;11.070;2023-06-26T05:52:50;13.77;;;5.13;;
4517;SDS011;2271;49.464;11.070;2023-06-26T05:55:16;5.35;;;4.53;;
4517;SDS011;2271;49.464;11.070;2023-06-26T05:57:42;8.77;;;4.88;;
4517;SDS011;2271;49.464;11.070;2023-06-26T06:00:10;10.25;;;5.25;;
4517;SDS011;2271;49.464;11.070;2023-06-26T06:02:37;6.20;;;5.43;;
4517;SDS011;2271;49.464;11.070;2023-06-26T06:05:03;8.73;;;5.38;;
4517;SDS011;2271;49.464;11.070;2023-06-26T06:07:30;7.70;;;5.22;;
4517;SDS011;2271;49.464;11.070;2023-06-26T06:09:57;6.78;;;5.20;;
4517;SDS011;2271;49.464;11.070;2023-06-26T06:12:23;6.45;;;5.10;;
4517;SDS011;2271;49.464;11.070;2023-06-26T06:14:49;7.97;;;5.47;;
4517;SDS011;2271;49.464;11.070;2023-06-26T06:17:14;7.47;;;5.50;;
4517;SDS011;2271;49.464;11.070;2023-06-26T06:19:40;6.28;;;4.90;;
4517;SDS011;2271;49.464;11.070;2023-06-26T06:22:06;8.43;;;4.53;;
4517;SDS011;2271;49.464;11.070;2023-06-26T06:24:31;9.68;;;4.95;;
4517;SDS011;2271;49.464;11.070;2023-06-26T06:26:57;7.13;;;4.85;;
4517;SDS011;2271;49.464;11.070;2023-06-26T06:29:22;8.25;;;5.50;;
4517;SDS011;2271;49.464;11.070;2023-06-26T06:31:48;8.15;;;5.82;;
4517;SDS011;2271;49.464;11.070;2023-06-26T06:34:13;7.85;;;5.47;;
4517;SDS011;2271;49.464;11.070;2023-06-26T06:36:39;9.15;;;5.22;;
4517;SDS011;2271;49.464;11.070;2023-06-26T06:39:05;9.15;;;5.07;;
4517;SDS011;2271;49.464;11.070;2023-06-26T06:41:30;6.68;;;5.20;;
4517;SDS011;2271;49.464;11.070;2023-06-26T06:43:56;5.53;;;4.93;;
4517;SDS011;2271;49.464;11.070;2023-06-26T06:46:21;6.32;;;5.30;;
4517;SDS011;2271;49.464;11.070;2023-06-26T06:48:47;6.32;;;5.25;;
4517;SDS011;2271;49.464;11.070;2023-06-26T06:51:13;7.07;;;4.85;;
4517;SDS011;2271;49.464;11.070;2023-06-26T06:53:38;7.38;;;5.82;;
4517;SDS011;2271;49.464;11.070;2023-06-26T06:56:04;7.35;;;5.22;;
4517;SDS011;2271;49.464;11.070;2023-06-26T06:58:29;5.75;;;4.70;;
4517;SDS011;2271;49.464;11.070;2023-06-26T07:00:59;7.72;;;4.80;;
4517;SDS011;2271;49.464;11.070;2023-06-26T07:03:24;5.63;;;4.82;;
4517;SDS011;2271;49.464;11.070;2023-06-26T07:05:50;5.20;;;4.60;;
4517;SDS011;2271;49.464;11.070;2023-06-26T07:08:16;6.13;;;5.25;;
4517;SDS011;2271;49.464;11.070;2023-06-26T07:10:41;6.82;;;5.43;;
4517;SDS011;2271;49.464;11.070;2023-06-26T07:13:07;7.30;;;5.57;;
4517;SDS011;2271;49.464;11.070;2023-06-26T07:15:33;7.50;;;5.38;;
4517;SDS011;2271;49.464;11.070;2023-06-26T07:17:59;5.57;;;4.97;;
4517;SDS011;2271;49.464;11.070;2023-06-26T07:20:28;8.07;;;5.43;;
4517;SDS011;2271;49.464;11.070;2023-06-26T07:22:53;7.50;;;5.13;;
4517;SDS011;2271;49.464;11.070;2023-06-26T07:25:19;6.40;;;5.45;;
4517;SDS011;2271;49.464;11.070;2023-06-26T07:27:44;7.57;;;5.18;;
4517;SDS011;2271;49.464;11.070;2023-06-26T07:30:10;7.00;;;5.70;;
4517;SDS011;2271;49.464;11.070;2023-06-26T07:32:36;6.72;;;5.40;;
4517;SDS011;2271;49.464;11.070;2023-06-26T07:35:02;8.95;;;4.53;;
4517;SDS011;2271;49.464;11.070;2023-06-26T07:37:28;6.55;;;5.72;;
4517;SDS011;2271;49.464;11.070;2023-06-26T07:39:54;7.10;;;5.25;;
4517;SDS011;2271;49.464;11.070;2023-06-26T07:42:20;6.60;;;5.53;;
4517;SDS011;2271;49.464;11.070;2023-06-26T07:44:46;7.25;;;5.75;;
4517;SDS011;2271;49.464;11.070;2023-06-26T07:47:11;6.43;;;5.53;;
4517;SDS011;2271;49.464;11.070;2023-06-26T07:49:37;7.93;;;5.47;;
4517;SDS011;2271;49.464;11.070;2023-06-26T07:52:04;5.78;;;5.15;;
4517;SDS011;2271;49.464;11.070;2023-06-26T07:54:30;8.40;;;5.22;;
4517;SDS011;2271;49.464;11.070;2023-06-26T07:56:57;7.05;;;5.75;;
4517;SDS011;2271;49.464;11.070;2023-06-26T07:59:24;6.35;;;5.55;;
4517;SDS011;2271;49.464;11.070;2023-06-26T08:01:53;8.32;;;5.60;;
4517;SDS011;2271;49.464;11.070;2023-06-26T08:04:20;6.93;;;5.45;;
4517;SDS011;2271;49.464;11.070;2023-06-26T08:06:51;7.55;;;5.78;;
4517;SDS011;2271;49.464;11.070;2023-06-26T08:09:19;6.28;;;5.35;;
4517;SDS011;2271;49.464;11.070;2023-06-26T08:11:46;6.95;;;5.07;;
4517;SDS011;2271;49.464;11.070;2023-06-26T08:14:11;6.28;;;5.68;;
4517;SDS011;2271;49.464;11.070;2023-06-26T08:16:38;8.00;;;5.18;;
4517;SDS011;2271;49.464;11.070;2023-06-26T08:19:04;6.75;;;6.05;;
4517;SDS011;2271;49.464;11.070;2023-06-26T08:21:29;6.32;;;5.68;;
4517;SDS011;2271;49.464;11.070;2023-06-26T08:23:55;6.15;;;5.47;;
4517;SDS011;2271;49.464;11.070;2023-06-26T08:26:21;6.45;;;5.65;;
4517;SDS011;2271;49.464;11.070;2023-06-26T08:28:46;7.30;;;6.03;;
4517;SDS011;2271;49.464;11.070;2023-06-26T08:31:12;8.90;;;5.63;;
4517;SDS011;2271;49.464;11.070;2023-06-26T08:33:38;11.50;;;5.50;;
4517;SDS011;2271;49.464;11.070;2023-06-26T08:36:03;5.82;;;5.32;;
4517;SDS011;2271;49.464;11.070;2023-06-26T08:38:29;6.43;;;5.57;;
4517;SDS011;2271;49.464;11.070;2023-06-26T08:40:55;8.00;;;5.43;;
4517;SDS011;2271;49.464;11.070;2023-06-26T08:43:20;9.45;;;6.25;;
4517;SDS011;2271;49.464;11.070;2023-06-26T08:45:47;6.88;;;5.78;;
4517;SDS011;2271;49.464;11.070;2023-06-26T08:48:22;6.68;;;5.72;;
4517;SDS011;2271;49.464;11.070;2023-06-26T08:50:49;10.70;;;6.40;;
4517;SDS011;2271;49.464;11.070;2023-06-26T08:56:40;6.50;;;5.18;;
4517;SDS011;2271;49.464;11.070;2023-06-26T08:59:08;6.35;;;5.43;;
4517;SDS011;2271;49.464;11.070;2023-06-26T09:01:35;9.70;;;5.45;;
4517;SDS011;2271;49.464;11.070;2023-06-26T09:04:02;6.50;;;5.55;;
4517;SDS011;2271;49.464;11.070;2023-06-26T09:06:28;6.63;;;5.53;;
4517;SDS011;2271;49.464;11.070;2023-06-26T09:08:53;6.72;;;5.53;;
4517;SDS011;2271;49.464;11.070;2023-06-26T09:11:20;7.40;;;6.13;;
4517;SDS011;2271;49.464;11.070;2023-06-26T09:13:45;7.40;;;5.65;;
4517;SDS011;2271;49.464;11.070;2023-06-26T09:16:12;5.53;;;5.03;;
4517;SDS011;2271;49.464;11.070;2023-06-26T09:18:40;5.95;;;4.93;;
4517;SDS011;2271;49.464;11.070;2023-06-26T09:21:07;6.00;;;4.95;;
4517;SDS011;2271;49.464;11.070;2023-06-26T09:23:34;5.57;;;5.07;;
4517;SDS011;2271;49.464;11.070;2023-06-26T09:26:04;5.43;;;4.93;;
4517;SDS011;2271;49.464;11.070;2023-06-26T09:28:34;5.18;;;4.40;;
4517;SDS011;2271;49.464;11.070;2023-06-26T09:31:01;8.07;;;5.45;;
4517;SDS011;2271;49.464;11.070;2023-06-26T09:33:32;5.68;;;5.18;;
4517;SDS011;2271;49.464;11.070;2023-06-26T09:36:00;5.55;;;4.72;;
4517;SDS011;2271;49.464;11.070;2023-06-26T09:38:26;6.07;;;5.47;;
4517;SDS011;2271;49.464;11.070;2023-06-26T09:40:52;7.53;;;5.60;;
4517;SDS011;2271;49.464;11.070;2023-06-26T09:43:18;7.22;;;5.53;;
4517;SDS011;2271;49.464;11.070;2023-06-26T09:45:44;5.90;;;5.15;;
4517;SDS011;2271;49.464;11.070;2023-06-26T09:48:09;6.75;;;5.38;;
4517;SDS011;2271;49.464;11.070;2023-06-26T09:50:36;6.65;;;5.28;;
4517;SDS011;2271;49.464;11.070;2023-06-26T09:53:12;5.88;;;4.65;;
4517;SDS011;2271;49.464;11.070;2023-06-26T09:55:39;7.15;;;5.00;;
4517;SDS011;2271;49.464;11.070;2023-06-26T09:58:10;5.75;;;5.13;;
4517;SDS011;2271;49.464;11.070;2023-06-26T10:00:39;5.90;;;4.70;;
4517;SDS011;2271;49.464;11.070;2023-06-26T10:03:06;7.03;;;4.85;;
4517;SDS011;2271;49.464;11.070;2023-06-26T10:05:32;6.93;;;4.63;;
4517;SDS011;2271;49.464;11.070;2023-06-26T10:07:58;5.95;;;4.78;;
4517;SDS011;2271;49.464;11.070;2023-06-26T10:10:24;6.43;;;5.03;;
4517;SDS011;2271;49.464;11.070;2023-06-26T10:12:52;6.47;;;5.30;;
4517;SDS011;2271;49.464;11.070;2023-06-26T10:15:25;4.90;;;4.50;;
4517;SDS011;2271;49.464;11.070;2023-06-26T10:17:52;4.43;;;4.03;;
4517;SDS011;2271;49.464;11.070;2023-06-26T10:20:21;5.22;;;4.65;;
4517;SDS011;2271;49.464;11.070;2023-06-26T10:22:47;5.65;;;4.90;;
4517;SDS011;2271;49.464;11.070;2023-06-26T10:25:15;6.40;;;5.65;;
4517;SDS011;2271;49.464;11.070;2023-06-26T10:27:46;6.70;;;5.15;;
4517;SDS011;2271;49.464;11.070;2023-06-26T10:30:17;6.97;;;5.47;;
4517;SDS011;2271;49.464;11.070;2023-06-26T10:32:46;5.63;;;5.13;;
4517;SDS011;2271;49.464;11.070;2023-06-26T10:35:13;5.47;;;4.80;;
4517;SDS011;2271;49.464;11.070;2023-06-26T10:37:42;5.72;;;5.18;;
4517;SDS011;2271;49.464;11.070;2023-06-26T10:40:13;6.43;;;5.07;;
4517;SDS011;2271;49.464;11.070;2023-06-26T10:42:46;5.20;;;4.65;;
4517;SDS011;2271;49.464;11.070;2023-06-26T10:45:15;5.30;;;4.80;;
4517;SDS011;2271;49.464;11.070;2023-06-26T10:47:45;6.65;;;5.20;;
4517;SDS011;2271;49.464;11.070;2023-06-26T10:52:44;5.80;;;4.32;;
4517;SDS011;2271;49.464;11.070;2023-06-26T10:55:10;5.25;;;4.65;;
4517;SDS011;2271;49.464;11.070;2023-06-26T10:57:36;5.63;;;4.80;;
4517;SDS011;2271;49.464;11.070;2023-06-26T11:00:09;6.93;;;4.95;;
4517;SDS011;2271;49.464;11.070;2023-06-26T11:02:49;7.28;;;5.50;;
4517;SDS011;2271;49.464;11.070;2023-06-26T11:05:25;6.03;;;4.82;;
4517;SDS011;2271;49.464;11.070;2023-06-26T11:08:07;6.72;;;5.20;;
4517;SDS011;2271;49.464;11.070;2023-06-26T11:10:51;5.68;;;5.03;;
4517;SDS011;2271;49.464;11.070;2023-06-26T11:13:18;6.45;;;4.78;;
4517;SDS011;2271;49.464;11.070;2023-06-26T11:15:46;5.47;;;4.32;;
4517;SDS011;2271;49.464;11.070;2023-06-26T11:18:14;6.93;;;5.00;;
4517;SDS011;2271;49.464;11.070;2023-06-26T11:20:40;6.85;;;5.35;;
4517;SDS011;2271;49.464;11.070;2023-06-26T11:23:05;7.43;;;5.47;;
4517;SDS011;2271;49.464;11.070;2023-06-26T11:25:34;5.03;;;4.53;;
4517;SDS011;2271;49.464;11.070;2023-06-26T11:28:00;5.03;;;4.53;;
4517;SDS011;2271;49.464;11.070;2023-06-26T11:30:26;5.28;;;4.30;;
4517;SDS011;2271;49.464;11.070;2023-06-26T11:32:52;4.75;;;4.22;;
4517;SDS011;2271;49.464;11.070;2023-06-26T11:35:24;5.22;;;4.53;;
4517;SDS011;2271;49.464;11.070;2023-06-26T11:37:58;6.13;;;5.53;;
4517;SDS011;2271;49.464;11.070;2023-06-26T11:40:28;5.45;;;4.95;;
4517;SDS011;2271;49.464;11.070;2023-06-26T11:42:57;5.63;;;4.53;;
4517;SDS011;2271;49.464;11.070;2023-06-26T11:45:24;4.50;;;4.10;;
4517;SDS011;2271;49.464;11.070;2023-06-26T11:47:54;4.80;;;4.40;;
4517;SDS011;2271;49.464;11.070;2023-06-26T11:50:20;6.05;;;5.03;;
4517;SDS011;2271;49.464;11.070;2023-06-26T11:52:52;5.25;;;4.32;;
4517;SDS011;2271;49.464;11.070;2023-06-26T11:55:19;4.88;;;4.47;;
4517;SDS011;2271;49.464;11.070;2023-06-26T11:57:49;4.47;;;4.07;;
4517;SDS011;2271;49.464;11.070;2023-06-26T12:00:15;5.72;;;3.85;;
4517;SDS011;2271;49.464;11.070;2023-06-26T12:02:43;3.70;;;3.40;;
4517;SDS011;2271;49.464;11.070;2023-06-26T12:05:10;4.07;;;3.63;;
4517;SDS011;2271;49.464;11.070;2023-06-26T12:07:37;4.60;;;4.20;;
4517;SDS011;2271;49.464;11.070;2023-06-26T12:10:03;5.00;;;4.05;;
4517;SDS011;2271;49.464;11.070;2023-06-26T12:12:30;4.93;;;3.97;;
4517;SDS011;2271;49.464;11.070;2023-06-26T12:14:56;4.25;;;3.65;;
4517;SDS011;2271;49.464;11.070;2023-06-26T12:17:23;5.03;;;3.53;;
4517;SDS011;2271;49.464;11.070;2023-06-26T12:19:50;3.92;;;3.40;;
4517;SDS011;2271;49.464;11.070;2023-06-26T12:22:16;4.65;;;3.35;;
4517;SDS011;2271;49.464;11.070;2023-06-26T12:24:42;4.15;;;3.60;;
4517;SDS011;2271;49.464;11.070;2023-06-26T12:27:18;6.63;;;4.50;;
4517;SDS011;2271;49.464;11.070;2023-06-26T12:29:51;4.15;;;3.75;;
4517;SDS011;2271;49.464;11.070;2023-06-26T12:32:18;4.50;;;3.55;;
4517;SDS011;2271;49.464;11.070;2023-06-26T12:34:47;4.70;;;3.47;;
4517;SDS011;2271;49.464;11.070;2023-06-26T12:37:14;4.57;;;3.72;;
4517;SDS011;2271;49.464;11.070;2023-06-26T12:39:53;3.83;;;3.40;;
4517;SDS011;2271;49.464;11.070;2023-06-26T12:42:21;4.72;;;4.00;;
4517;SDS011;2271;49.464;11.070;2023-06-26T12:44:48;3.72;;;3.38;;
4517;SDS011;2271;49.464;11.070;2023-06-26T12:47:15;4.13;;;3.72;;
4517;SDS011;2271;49.464;11.070;2023-06-26T12:49:42;5.18;;;3.97;;
4517;SDS011;2271;49.464;11.070;2023-06-26T12:52:10;3.78;;;3.38;;
4517;SDS011;2271;49.464;11.070;2023-06-26T12:54:38;4.38;;;3.97;;
4517;SDS011;2271;49.464;11.070;2023-06-26T12:57:05;3.45;;;3.08;;
4517;SDS011;2271;49.464;11.070;2023-06-26T12:59:31;7.20;;;3.70;;
4517;SDS011;2271;49.464;11.070;2023-06-26T13:01:58;3.47;;;3.17;;
4517;SDS011;2271;49.464;11.070;2023-06-26T13:04:24;4.63;;;4.22;;
4517;SDS011;2271;49.464;11.070;2023-06-26T13:06:51;4.28;;;3.90;;
4517;SDS011;2271;49.464;11.070;2023-06-26T13:09:19;4.05;;;3.65;;
4517;SDS011;2271;49.464;11.070;2023-06-26T13:11:45;3.72;;;3.33;;
4517;SDS011;2271;49.464;11.070;2023-06-26T13:14:11;6.35;;;4.18;;
4517;SDS011;2271;49.464;11.070;2023-06-26T13:16:37;6.50;;;4.32;;
4517;SDS011;2271;49.464;11.070;2023-06-26T13:19:03;4.40;;;3.90;;
4517;SDS011;2271;49.464;11.070;2023-06-26T13:21:29;4.07;;;3.67;;
4517;SDS011;2271;49.464;11.070;2023-06-26T13:23:55;4.57;;;4.18;;
4517;SDS011;2271;49.464;11.070;2023-06-26T13:26:21;6.20;;;3.88;;
4517;SDS011;2271;49.464;11.070;2023-06-26T13:28:47;5.45;;;4.07;;
4517;SDS011;2271;49.464;11.070;2023-06-26T13:31:13;6.03;;;4.10;;
4517;SDS011;2271;49.464;11.070;2023-06-26T13:33:39;5.10;;;4.60;;
4517;SDS011;2271;49.464;11.070;2023-06-26T13:36:05;5.22;;;4.63;;
4517;SDS011;2271;49.464;11.070;2023-06-26T13:38:32;5.57;;;4.15;;
4517;SDS011;2271;49.464;11.070;2023-06-26T13:40:59;4.93;;;4.43;;
4517;SDS011;2271;49.464;11.070;2023-06-26T13:43:26;5.07;;;4.57;;
4517;SDS011;2271;49.464;11.070;2023-06-26T13:45:52;4.55;;;4.15;;
4517;SDS011;2271;49.464;11.070;2023-06-26T13:48:18;4.93;;;4.13;;
4517;SDS011;2271;49.464;11.070;2023-06-26T13:50:44;6.78;;;4.10;;
4517;SDS011;2271;49.464;11.070;2023-06-26T13:53:11;4.65;;;4.22;;
4517;SDS011;2271;49.464;11.070;2023-06-26T13:55:37;6.15;;;4.75;;
4517;SDS011;2271;49.464;11.070;2023-06-26T13:58:03;5.32;;;4.82;;
4517;SDS011;2271;49.464;11.070;2023-06-26T14:00:30;4.68;;;4.28;;
4517;SDS011;2271;49.464;11.070;2023-06-26T14:02:58;5.53;;;4.40;;
4517;SDS011;2271;49.464;11.070;2023-06-26T14:05:28;4.63;;;3.97;;
4517;SDS011;2271;49.464;11.070;2023-06-26T14:07:54;5.00;;;4.50;;
4517;SDS011;2271;49.464;11.070;2023-06-26T14:10:20;5.50;;;4.95;;
4517;SDS011;2271;49.464;11.070;2023-06-26T14:12:46;5.13;;;4.63;;
4517;SDS011;2271;49.464;11.070;2023-06-26T14:15:12;5.15;;;4.68;;
4517;SDS011;2271;49.464;11.070;2023-06-26T14:17:38;6.97;;;6.05;;
4517;SDS011;2271;49.464;11.070;2023-06-26T14:20:05;5.50;;;4.65;;
4517;SDS011;2271;49.464;11.070;2023-06-26T14:22:35;4.88;;;4.28;;
4517;SDS011;2271;49.464;11.070;2023-06-26T14:25:00;6.95;;;4.47;;
4517;SDS011;2271;49.464;11.070;2023-06-26T14:27:26;5.60;;;4.75;;
4517;SDS011;2271;49.464;11.070;2023-06-26T14:29:52;6.07;;;5.10;;
4517;SDS011;2271;49.464;11.070;2023-06-26T14:32:17;5.25;;;4.75;;
4517;SDS011;2271;49.464;11.070;2023-06-26T14:34:43;4.97;;;4.47;;
4517;SDS011;2271;49.464;11.070;2023-06-26T14:37:09;6.13;;;5.05;;
4517;SDS011;2271;49.464;11.070;2023-06-26T14:39:34;6.13;;;5.00;;
4517;SDS011;2271;49.464;11.070;2023-06-26T14:42:00;5.88;;;5.28;;
4517;SDS011;2271;49.464;11.070;2023-06-26T14:44:25;9.52;;;4.88;;
4517;SDS011;2271;49.464;11.070;2023-06-26T14:46:51;5.78;;;5.18;;
4517;SDS011;2271;49.464;11.070;2023-06-26T14:49:17;7.15;;;5.18;;
4517;SDS011;2271;49.464;11.070;2023-06-26T14:51:44;5.82;;;5.00;;
4517;SDS011;2271;49.464;11.070;2023-06-26T14:54:09;5.78;;;4.93;;
4517;SDS011;2271;49.464;11.070;2023-06-26T14:56:35;6.05;;;5.45;;
4517;SDS011;2271;49.464;11.070;2023-06-26T14:59:00;6.47;;;5.15;;
4517;SDS011;2271;49.464;11.070;2023-06-26T15:01:26;6.15;;;5.32;;
4517;SDS011;2271;49.464;11.070;2023-06-26T15:03:52;5.95;;;4.85;;
4517;SDS011;2271;49.464;11.070;2023-06-26T15:06:17;7.07;;;5.25;;
4517;SDS011;2271;49.464;11.070;2023-06-26T15:08:43;5.72;;;5.05;;